sensor_id;sensor_type;location;lat;lon;timestamp;P1;durP1;ratioP1;P2;durP2;ratioP2
61741;SDS011;47650;49.848;9.620;2023-12-20T00:01:02;8.77;;;6.10;;
61741;SDS011;47650;49.848;9.620;2023-12-20T00:03:27;17.58;;;6.40;;
61741;SDS011;47650;49.848;9.620;2023-12-20T00:05:52;10.25;;;5.60;;
61741;SDS011;47650;49.848;9.620;2023-12-20T00:08:18;6.25;;;4.80;;
61741;SDS011;47650;49.848;9.620;2023-12-20T00:10:43;7.15;;;3.78;;
61741;SDS011;47650;49.848;9.620;2023-12-20T00:13:09;9.95;;;5.25;;
61741;SDS011;47650;49.848;9.620;2023-12-20T00:15:36;11.93;;;5.70;;
61741;SDS011;47650;49.848;9.620;2023-12-20T00:18:02;5.22;;;3.38;;
61741;SDS011;47650;49.848;9.620;2023-12-20T00:20:28;6.00;;;3.85;;
61741;SDS011;47650;49.848;9.620;2023-12-20T00:22:55;7.40;;;4.65;;
61741;SDS011;47650;49.848;9.620;2023-12-20T00:25:23;5.15;;;3.72;;
61741;SDS011;47650;49.848;9.620;2023-12-20T00:27:49;9.50;;;3.65;;
61741;SDS011;47650;49.848;9.620;2023-12-20T00:30:15;3.63;;;2.38;;
61741;SDS011;47650;49.848;9.620;2023-12-20T00:32:40;7.40;;;2.17;;
61741;SDS011;47650;49.848;9.620;2023-12-20T00:35:11;3.78;;;2.65;;
61741;SDS011;47650;49.848;9.620;2023-12-20T00:37:37;2.45;;;2.03;;
61741;SDS011;47650;49.848;9.620;2023-12-20T00:40:02;4.20;;;2.38;;
61741;SDS011;47650;49.848;9.620;2023-12-20T00:42:28;2.63;;;1.83;;
61741;SDS011;47650;49.848;9.620;2023-12-20T00:44:53;4.47;;;3.10;;
61741;SDS011;47650;49.848;9.620;2023-12-20T00:47:19;2.17;;;1.63;;
61741;SDS011;47650;49.848;9.620;2023-12-20T00:49:44;3.03;;;2.22;;
61741;SDS011;47650;49.848;9.620;2023-12-20T00:52:09;3.90;;;3.53;;
61741;SDS011;47650;49.848;9.620;2023-12-20T00:54:34;3.05;;;2.03;;
61741;SDS011;47650;49.848;9.620;2023-12-20T00:57:00;2.70;;;2.22;;
61741;SDS011;47650;49.848;9.620;2023-12-20T00:59:25;2.28;;;1.73;;
61741;SDS011;47650;49.848;9.620;2023-12-20T01:01:50;2.05;;;1.73;;
61741;SDS011;47650;49.848;9.620;2023-12-20T01:04:16;2.13;;;1.70;;
61741;SDS011;47650;49.848;9.620;2023-12-20T01:06:41;2.67;;;1.70;;
61741;SDS011;47650;49.848;9.620;2023-12-20T01:09:06;6.90;;;1.73;;
61741;SDS011;47650;49.848;9.620;2023-12-20T01:11:32;2.60;;;2.00;;
61741;SDS011;47650;49.848;9.620;2023-12-20T01:13:57;1.83;;;1.40;;
61741;SDS011;47650;49.848;9.620;2023-12-20T01:16:22;4.82;;;2.03;;
61741;SDS011;47650;49.848;9.620;2023-12-20T01:18:47;1.60;;;1.48;;
61741;SDS011;47650;49.848;9.620;2023-12-20T01:21:13;2.03;;;1.70;;
61741;SDS011;47650;49.848;9.620;2023-12-20T01:23:38;2.53;;;2.10;;
61741;SDS011;47650;49.848;9.620;2023-12-20T01:26:03;3.20;;;1.80;;
61741;SDS011;47650;49.848;9.620;2023-12-20T01:28:30;2.42;;;1.85;;
61741;SDS011;47650;49.848;9.620;2023-12-20T01:30:56;2.03;;;1.60;;
61741;SDS011;47650;49.848;9.620;2023-12-20T01:33:22;2.55;;;1.83;;
61741;SDS011;47650;49.848;9.620;2023-12-20T01:35:47;4.18;;;1.60;;
61741;SDS011;47650;49.848;9.620;2023-12-20T01:38:14;2.13;;;1.83;;
61741;SDS011;47650;49.848;9.620;2023-12-20T01:40:40;1.92;;;1.50;;
61741;SDS011;47650;49.848;9.620;2023-12-20T01:43:07;2.90;;;1.60;;
61741;SDS011;47650;49.848;9.620;2023-12-20T01:45:34;4.38;;;1.50;;
61741;SDS011;47650;49.848;9.620;2023-12-20T01:47:59;2.22;;;1.63;;
61741;SDS011;47650;49.848;9.620;2023-12-20T01:50:25;2.28;;;1.30;;
61741;SDS011;47650;49.848;9.620;2023-12-20T01:52:51;2.38;;;1.88;;
61741;SDS011;47650;49.848;9.620;2023-12-20T01:55:21;2.38;;;1.40;;
61741;SDS011;47650;49.848;9.620;2023-12-20T01:57:47;0.70;;;0.70;;
61741;SDS011;47650;49.848;9.620;2023-12-20T02:00:12;1.90;;;1.48;;
61741;SDS011;47650;49.848;9.620;2023-12-20T02:02:39;2.28;;;1.58;;
61741;SDS011;47650;49.848;9.620;2023-12-20T02:05:06;8.10;;;1.80;;
61741;SDS011;47650;49.848;9.620;2023-12-20T02:07:32;1.98;;;1.60;;
61741;SDS011;47650;49.848;9.620;2023-12-20T02:09:59;4.13;;;1.98;;
61741;SDS011;47650;49.848;9.620;2023-12-20T02:12:26;2.28;;;1.67;;
61741;SDS011;47650;49.848;9.620;2023-12-20T02:14:52;2.13;;;1.50;;
61741;SDS011;47650;49.848;9.620;2023-12-20T02:17:18;1.67;;;1.40;;
61741;SDS011;47650;49.848;9.620;2023-12-20T02:19:44;4.07;;;1.60;;
61741;SDS011;47650;49.848;9.620;2023-12-20T02:22:12;2.40;;;1.50;;
61741;SDS011;47650;49.848;9.620;2023-12-20T02:24:39;1.40;;;1.20;;
61741;SDS011;47650;49.848;9.620;2023-12-20T02:27:05;1.58;;;1.33;;
61741;SDS011;47650;49.848;9.620;2023-12-20T02:29:33;1.88;;;1.38;;
61741;SDS011;47650;49.848;9.620;2023-12-20T02:32:00;2.10;;;1.20;;
61741;SDS011;47650;49.848;9.620;2023-12-20T02:34:25;1.63;;;1.30;;
61741;SDS011;47650;49.848;9.620;2023-12-20T02:36:51;3.83;;;1.63;;
61741;SDS011;47650;49.848;9.620;2023-12-20T02:39:16;2.60;;;1.70;;
61741;SDS011;47650;49.848;9.620;2023-12-20T02:41:44;1.20;;;1.02;;
61741;SDS011;47650;49.848;9.620;2023-12-20T02:44:10;3.90;;;1.63;;
61741;SDS011;47650;49.848;9.620;2023-12-20T02:46:36;3.28;;;1.92;;
61741;SDS011;47650;49.848;9.620;2023-12-20T02:49:02;2.50;;;1.85;;
61741;SDS011;47650;49.848;9.620;2023-12-20T02:51:29;1.75;;;1.40;;
61741;SDS011;47650;49.848;9.620;2023-12-20T02:53:54;2.03;;;1.42;;
61741;SDS011;47650;49.848;9.620;2023-12-20T02:56:20;4.80;;;1.88;;
61741;SDS011;47650;49.848;9.620;2023-12-20T02:58:45;3.67;;;1.35;;
61741;SDS011;47650;49.848;9.620;2023-12-20T03:01:10;1.42;;;1.15;;
61741;SDS011;47650;49.848;9.620;2023-12-20T03:03:35;1.50;;;1.10;;
61741;SDS011;47650;49.848;9.620;2023-12-20T03:06:01;1.52;;;1.20;;
61741;SDS011;47650;49.848;9.620;2023-12-20T03:08:26;2.30;;;1.60;;
61741;SDS011;47650;49.848;9.620;2023-12-20T03:10:51;1.30;;;1.20;;
61741;SDS011;47650;49.848;9.620;2023-12-20T03:13:18;2.97;;;1.70;;
61741;SDS011;47650;49.848;9.620;2023-12-20T03:15:43;1.63;;;0.93;;
61741;SDS011;47650;49.848;9.620;2023-12-20T03:18:08;1.50;;;0.90;;
61741;SDS011;47650;49.848;9.620;2023-12-20T03:20:34;4.40;;;1.30;;
61741;SDS011;47650;49.848;9.620;2023-12-20T03:23:02;1.85;;;1.40;;
61741;SDS011;47650;49.848;9.620;2023-12-20T03:25:31;3.08;;;1.45;;
61741;SDS011;47650;49.848;9.620;2023-12-20T03:27:57;2.30;;;1.30;;
61741;SDS011;47650;49.848;9.620;2023-12-20T03:30:22;2.75;;;1.42;;
61741;SDS011;47650;49.848;9.620;2023-12-20T03:32:48;2.13;;;1.45;;
61741;SDS011;47650;49.848;9.620;2023-12-20T03:35:13;2.17;;;1.35;;
61741;SDS011;47650;49.848;9.620;2023-12-20T03:37:38;1.35;;;1.17;;
61741;SDS011;47650;49.848;9.620;2023-12-20T03:40:04;2.65;;;2.08;;
61741;SDS011;47650;49.848;9.620;2023-12-20T03:42:30;1.80;;;1.40;;
61741;SDS011;47650;49.848;9.620;2023-12-20T03:44:55;2.00;;;1.60;;
61741;SDS011;47650;49.848;9.620;2023-12-20T03:47:21;2.92;;;1.90;;
61741;SDS011;47650;49.848;9.620;2023-12-20T03:49:46;2.67;;;1.55;;
61741;SDS011;47650;49.848;9.620;2023-12-20T03:52:14;1.90;;;1.40;;
61741;SDS011;47650;49.848;9.620;2023-12-20T03:54:40;3.08;;;2.40;;
61741;SDS011;47650;49.848;9.620;2023-12-20T03:57:07;2.25;;;1.48;;
61741;SDS011;47650;49.848;9.620;2023-12-20T03:59:36;2.40;;;1.80;;
61741;SDS011;47650;49.848;9.620;2023-12-20T04:02:02;2.35;;;1.80;;
61741;SDS011;47650;49.848;9.620;2023-12-20T04:04:28;2.38;;;1.70;;
61741;SDS011;47650;49.848;9.620;2023-12-20T04:06:53;2.03;;;1.70;;
61741;SDS011;47650;49.848;9.620;2023-12-20T04:09:18;5.68;;;3.97;;
61741;SDS011;47650;49.848;9.620;2023-12-20T04:11:44;3.45;;;1.88;;
61741;SDS011;47650;49.848;9.620;2023-12-20T04:14:09;3.17;;;2.30;;
61741;SDS011;47650;49.848;9.620;2023-12-20T04:16:35;3.33;;;1.90;;
61741;SDS011;47650;49.848;9.620;2023-12-20T04:19:03;2.83;;;1.60;;
61741;SDS011;47650;49.848;9.620;2023-12-20T04:21:29;2.88;;;2.30;;
61741;SDS011;47650;49.848;9.620;2023-12-20T04:23:54;3.55;;;2.92;;
61741;SDS011;47650;49.848;9.620;2023-12-20T04:26:19;2.95;;;2.00;;
61741;SDS011;47650;49.848;9.620;2023-12-20T04:28:45;3.33;;;2.80;;
61741;SDS011;47650;49.848;9.620;2023-12-20T04:31:12;4.20;;;3.50;;
61741;SDS011;47650;49.848;9.620;2023-12-20T04:33:37;4.35;;;3.95;;
61741;SDS011;47650;49.848;9.620;2023-12-20T04:36:02;6.78;;;5.97;;
61741;SDS011;47650;49.848;9.620;2023-12-20T04:38:29;4.20;;;2.60;;
61741;SDS011;47650;49.848;9.620;2023-12-20T04:40:54;5.35;;;3.70;;
61741;SDS011;47650;49.848;9.620;2023-12-20T04:43:20;6.82;;;3.72;;
61741;SDS011;47650;49.848;9.620;2023-12-20T04:45:45;4.50;;;3.20;;
61741;SDS011;47650;49.848;9.620;2023-12-20T04:48:10;5.30;;;3.08;;
61741;SDS011;47650;49.848;9.620;2023-12-20T04:50:36;3.75;;;3.40;;
61741;SDS011;47650;49.848;9.620;2023-12-20T04:53:01;4.07;;;3.58;;
61741;SDS011;47650;49.848;9.620;2023-12-20T04:55:26;6.38;;;4.40;;
61741;SDS011;47650;49.848;9.620;2023-12-20T04:57:52;5.47;;;3.88;;
61741;SDS011;47650;49.848;9.620;2023-12-20T05:00:17;5.72;;;3.85;;
61741;SDS011;47650;49.848;9.620;2023-12-20T05:02:42;4.60;;;3.08;;
61741;SDS011;47650;49.848;9.620;2023-12-20T05:05:08;4.97;;;3.22;;
61741;SDS011;47650;49.848;9.620;2023-12-20T05:07:33;5.07;;;3.60;;
61741;SDS011;47650;49.848;9.620;2023-12-20T05:09:59;7.78;;;4.28;;
61741;SDS011;47650;49.848;9.620;2023-12-20T05:12:24;4.57;;;3.28;;
61741;SDS011;47650;49.848;9.620;2023-12-20T05:14:51;3.80;;;3.00;;
61741;SDS011;47650;49.848;9.620;2023-12-20T05:17:18;4.55;;;3.50;;
61741;SDS011;47650;49.848;9.620;2023-12-20T05:19:45;4.10;;;3.40;;
61741;SDS011;47650;49.848;9.620;2023-12-20T05:22:10;4.97;;;3.63;;
61741;SDS011;47650;49.848;9.620;2023-12-20T05:24:36;5.47;;;3.60;;
61741;SDS011;47650;49.848;9.620;2023-12-20T05:27:02;5.55;;;3.45;;
61741;SDS011;47650;49.848;9.620;2023-12-20T05:29:27;5.53;;;3.75;;
61741;SDS011;47650;49.848;9.620;2023-12-20T05:31:53;5.05;;;3.70;;
61741;SDS011;47650;49.848;9.620;2023-12-20T05:34:20;5.53;;;4.32;;
61741;SDS011;47650;49.848;9.620;2023-12-20T05:36:46;5.45;;;4.22;;
61741;SDS011;47650;49.848;9.620;2023-12-20T05:39:11;5.28;;;3.90;;
61741;SDS011;47650;49.848;9.620;2023-12-20T05:41:37;5.32;;;4.45;;
61741;SDS011;47650;49.848;9.620;2023-12-20T05:44:03;4.93;;;3.22;;
61741;SDS011;47650;49.848;9.620;2023-12-20T05:46:29;5.97;;;3.95;;
61741;SDS011;47650;49.848;9.620;2023-12-20T05:48:54;5.45;;;4.55;;
61741;SDS011;47650;49.848;9.620;2023-12-20T05:51:19;7.80;;;5.65;;
61741;SDS011;47650;49.848;9.620;2023-12-20T05:53:46;5.63;;;4.55;;
61741;SDS011;47650;49.848;9.620;2023-12-20T05:56:11;5.70;;;3.80;;
61741;SDS011;47650;49.848;9.620;2023-12-20T05:58:38;5.90;;;4.47;;
61741;SDS011;47650;49.848;9.620;2023-12-20T06:01:05;5.80;;;4.90;;
61741;SDS011;47650;49.848;9.620;2023-12-20T06:03:31;6.03;;;4.50;;
61741;SDS011;47650;49.848;9.620;2023-12-20T06:05:57;6.25;;;3.10;;
61741;SDS011;47650;49.848;9.620;2023-12-20T06:08:22;8.82;;;5.50;;
61741;SDS011;47650;49.848;9.620;2023-12-20T06:10:47;9.50;;;5.75;;
61741;SDS011;47650;49.848;9.620;2023-12-20T06:13:13;5.90;;;5.05;;
61741;SDS011;47650;49.848;9.620;2023-12-20T06:15:39;6.93;;;5.47;;
61741;SDS011;47650;49.848;9.620;2023-12-20T06:18:05;9.35;;;7.47;;
61741;SDS011;47650;49.848;9.620;2023-12-20T06:20:30;7.70;;;6.60;;
61741;SDS011;47650;49.848;9.620;2023-12-20T06:22:56;5.40;;;3.75;;
61741;SDS011;47650;49.848;9.620;2023-12-20T06:25:21;4.47;;;3.20;;
61741;SDS011;47650;49.848;9.620;2023-12-20T06:27:46;8.07;;;6.30;;
61741;SDS011;47650;49.848;9.620;2023-12-20T06:30:12;5.70;;;3.65;;
61741;SDS011;47650;49.848;9.620;2023-12-20T06:32:37;5.75;;;5.05;;
61741;SDS011;47650;49.848;9.620;2023-12-20T06:35:04;7.65;;;6.07;;
61741;SDS011;47650;49.848;9.620;2023-12-20T06:37:31;6.70;;;4.22;;
61741;SDS011;47650;49.848;9.620;2023-12-20T06:39:57;5.47;;;3.85;;
61741;SDS011;47650;49.848;9.620;2023-12-20T06:42:22;5.30;;;4.10;;
61741;SDS011;47650;49.848;9.620;2023-12-20T06:44:49;6.60;;;5.63;;
61741;SDS011;47650;49.848;9.620;2023-12-20T06:47:14;7.45;;;4.28;;
61741;SDS011;47650;49.848;9.620;2023-12-20T06:49:40;8.80;;;5.68;;
61741;SDS011;47650;49.848;9.620;2023-12-20T06:52:05;6.25;;;3.95;;
61741;SDS011;47650;49.848;9.620;2023-12-20T06:54:31;2.72;;;2.25;;
61741;SDS011;47650;49.848;9.620;2023-12-20T06:56:56;5.88;;;2.95;;
61741;SDS011;47650;49.848;9.620;2023-12-20T06:59:21;10.48;;;4.18;;
61741;SDS011;47650;49.848;9.620;2023-12-20T07:01:49;9.20;;;4.57;;
61741;SDS011;47650;49.848;9.620;2023-12-20T07:04:15;8.98;;;5.18;;
61741;SDS011;47650;49.848;9.620;2023-12-20T07:06:41;8.63;;;4.68;;
61741;SDS011;47650;49.848;9.620;2023-12-20T07:09:08;12.23;;;5.35;;
61741;SDS011;47650;49.848;9.620;2023-12-20T07:11:33;5.85;;;3.35;;
61741;SDS011;47650;49.848;9.620;2023-12-20T07:13:58;10.15;;;4.75;;
61741;SDS011;47650;49.848;9.620;2023-12-20T07:16:23;10.02;;;5.97;;
61741;SDS011;47650;49.848;9.620;2023-12-20T07:18:49;14.40;;;5.93;;
61741;SDS011;47650;49.848;9.620;2023-12-20T07:21:15;13.68;;;5.68;;
61741;SDS011;47650;49.848;9.620;2023-12-20T07:23:40;12.57;;;5.28;;
61741;SDS011;47650;49.848;9.620;2023-12-20T07:26:06;10.05;;;4.88;;
61741;SDS011;47650;49.848;9.620;2023-12-20T07:28:31;14.30;;;6.28;;
61741;SDS011;47650;49.848;9.620;2023-12-20T07:30:57;11.02;;;5.68;;
61741;SDS011;47650;49.848;9.620;2023-12-20T07:33:22;10.73;;;5.75;;
61741;SDS011;47650;49.848;9.620;2023-12-20T07:35:47;14.82;;;6.68;;
61741;SDS011;47650;49.848;9.620;2023-12-20T07:38:12;11.73;;;5.75;;
61741;SDS011;47650;49.848;9.620;2023-12-20T07:40:38;14.52;;;6.80;;
61741;SDS011;47650;49.848;9.620;2023-12-20T07:43:04;9.43;;;4.93;;
61741;SDS011;47650;49.848;9.620;2023-12-20T07:45:29;9.88;;;4.43;;
61741;SDS011;47650;49.848;9.620;2023-12-20T07:47:55;4.03;;;2.08;;
61741;SDS011;47650;49.848;9.620;2023-12-20T07:50:20;11.38;;;4.40;;
61741;SDS011;47650;49.848;9.620;2023-12-20T07:52:45;10.27;;;5.28;;
61741;SDS011;47650;49.848;9.620;2023-12-20T07:55:11;13.10;;;4.88;;
61741;SDS011;47650;49.848;9.620;2023-12-20T07:57:36;9.23;;;5.10;;
61741;SDS011;47650;49.848;9.620;2023-12-20T08:00:02;7.93;;;4.80;;
61741;SDS011;47650;49.848;9.620;2023-12-20T08:02:28;16.50;;;5.28;;
61741;SDS011;47650;49.848;9.620;2023-12-20T08:04:54;14.15;;;4.63;;
61741;SDS011;47650;49.848;9.620;2023-12-20T08:07:19;10.93;;;8.52;;
61741;SDS011;47650;49.848;9.620;2023-12-20T08:09:44;10.40;;;5.00;;
61741;SDS011;47650;49.848;9.620;2023-12-20T08:12:10;10.43;;;3.90;;
61741;SDS011;47650;49.848;9.620;2023-12-20T08:14:36;11.65;;;6.85;;
61741;SDS011;47650;49.848;9.620;2023-12-20T08:17:01;6.97;;;3.95;;
61741;SDS011;47650;49.848;9.620;2023-12-20T08:19:30;10.70;;;4.57;;
61741;SDS011;47650;49.848;9.620;2023-12-20T08:21:55;11.98;;;4.22;;
61741;SDS011;47650;49.848;9.620;2023-12-20T08:24:23;9.95;;;4.03;;
61741;SDS011;47650;49.848;9.620;2023-12-20T08:26:48;8.82;;;3.05;;
61741;SDS011;47650;49.848;9.620;2023-12-20T08:29:15;9.13;;;3.88;;
61741;SDS011;47650;49.848;9.620;2023-12-20T08:31:40;9.85;;;3.70;;
61741;SDS011;47650;49.848;9.620;2023-12-20T08:34:05;5.57;;;2.00;;
61741;SDS011;47650;49.848;9.620;2023-12-20T08:36:31;9.25;;;2.47;;
61741;SDS011;47650;49.848;9.620;2023-12-20T08:38:56;7.30;;;3.08;;
61741;SDS011;47650;49.848;9.620;2023-12-20T08:41:21;8.60;;;2.40;;
61741;SDS011;47650;49.848;9.620;2023-12-20T08:43:47;6.03;;;2.03;;
61741;SDS011;47650;49.848;9.620;2023-12-20T08:46:13;8.85;;;2.20;;
61741;SDS011;47650;49.848;9.620;2023-12-20T08:48:39;5.63;;;2.05;;
61741;SDS011;47650;49.848;9.620;2023-12-20T08:51:04;6.70;;;1.60;;
61741;SDS011;47650;49.848;9.620;2023-12-20T08:53:32;9.35;;;2.45;;
61741;SDS011;47650;49.848;9.620;2023-12-20T08:55:58;5.43;;;2.22;;
61741;SDS011;47650;49.848;9.620;2023-12-20T08:58:26;5.93;;;2.03;;
61741;SDS011;47650;49.848;9.620;2023-12-20T09:00:51;4.20;;;2.53;;
61741;SDS011;47650;49.848;9.620;2023-12-20T09:03:16;5.13;;;2.15;;
61741;SDS011;47650;49.848;9.620;2023-12-20T09:05:42;4.75;;;2.35;;
61741;SDS011;47650;49.848;9.620;2023-12-20T09:08:07;4.88;;;2.25;;
61741;SDS011;47650;49.848;9.620;2023-12-20T09:10:34;7.65;;;3.53;;
61741;SDS011;47650;49.848;9.620;2023-12-20T09:13:00;1.98;;;1.48;;
61741;SDS011;47650;49.848;9.620;2023-12-20T09:15:26;6.40;;;1.83;;
61741;SDS011;47650;49.848;9.620;2023-12-20T09:17:52;5.88;;;1.70;;
61741;SDS011;47650;49.848;9.620;2023-12-20T09:20:17;6.15;;;1.70;;
61741;SDS011;47650;49.848;9.620;2023-12-20T09:22:42;6.05;;;1.60;;
61741;SDS011;47650;49.848;9.620;2023-12-20T09:25:09;6.25;;;1.92;;
61741;SDS011;47650;49.848;9.620;2023-12-20T09:27:36;6.38;;;1.65;;
61741;SDS011;47650;49.848;9.620;2023-12-20T09:30:01;7.28;;;2.10;;
61741;SDS011;47650;49.848;9.620;2023-12-20T09:32:26;6.50;;;1.30;;
61741;SDS011;47650;49.848;9.620;2023-12-20T09:34:52;5.80;;;1.40;;
61741;SDS011;47650;49.848;9.620;2023-12-20T09:37:17;9.07;;;4.00;;
61741;SDS011;47650;49.848;9.620;2023-12-20T09:39:42;5.22;;;1.50;;
61741;SDS011;47650;49.848;9.620;2023-12-20T09:42:08;7.03;;;2.33;;
61741;SDS011;47650;49.848;9.620;2023-12-20T09:44:36;8.35;;;2.10;;
61741;SDS011;47650;49.848;9.620;2023-12-20T09:47:05;7.65;;;2.33;;
61741;SDS011;47650;49.848;9.620;2023-12-20T09:49:31;8.68;;;4.03;;
61741;SDS011;47650;49.848;9.620;2023-12-20T09:51:57;4.30;;;2.17;;
61741;SDS011;47650;49.848;9.620;2023-12-20T09:54:25;10.30;;;2.38;;
61741;SDS011;47650;49.848;9.620;2023-12-20T09:56:53;5.97;;;2.00;;
61741;SDS011;47650;49.848;9.620;2023-12-20T09:59:19;4.20;;;1.55;;
61741;SDS011;47650;49.848;9.620;2023-12-20T10:01:44;7.10;;;1.70;;
61741;SDS011;47650;49.848;9.620;2023-12-20T10:04:10;6.25;;;1.75;;
61741;SDS011;47650;49.848;9.620;2023-12-20T10:06:41;3.17;;;1.48;;
61741;SDS011;47650;49.848;9.620;2023-12-20T10:09:08;7.15;;;2.78;;
61741;SDS011;47650;49.848;9.620;2023-12-20T10:11:35;5.57;;;1.60;;
61741;SDS011;47650;49.848;9.620;2023-12-20T10:14:04;11.48;;;1.95;;
61741;SDS011;47650;49.848;9.620;2023-12-20T10:16:30;7.95;;;1.60;;
61741;SDS011;47650;49.848;9.620;2023-12-20T10:18:57;7.18;;;1.85;;
61741;SDS011;47650;49.848;9.620;2023-12-20T10:21:23;5.32;;;1.90;;
61741;SDS011;47650;49.848;9.620;2023-12-20T10:23:49;4.25;;;1.90;;
61741;SDS011;47650;49.848;9.620;2023-12-20T10:26:21;7.78;;;2.20;;
61741;SDS011;47650;49.848;9.620;2023-12-20T10:28:49;7.72;;;1.73;;
61741;SDS011;47650;49.848;9.620;2023-12-20T10:31:25;5.07;;;1.65;;
61741;SDS011;47650;49.848;9.620;2023-12-20T10:33:51;6.55;;;1.83;;
61741;SDS011;47650;49.848;9.620;2023-12-20T10:36:16;8.48;;;2.65;;
61741;SDS011;47650;49.848;9.620;2023-12-20T10:38:42;5.70;;;1.67;;
61741;SDS011;47650;49.848;9.620;2023-12-20T10:41:08;7.50;;;1.70;;
61741;SDS011;47650;49.848;9.620;2023-12-20T10:43:34;5.25;;;2.47;;
61741;SDS011;47650;49.848;9.620;2023-12-20T10:46:01;5.00;;;1.67;;
61741;SDS011;47650;49.848;9.620;2023-12-20T10:48:28;8.48;;;2.10;;
61741;SDS011;47650;49.848;9.620;2023-12-20T10:50:56;6.43;;;2.03;;
61741;SDS011;47650;49.848;9.620;2023-12-20T10:53:23;6.32;;;1.70;;
61741;SDS011;47650;49.848;9.620;2023-12-20T10:55:50;6.95;;;1.35;;
61741;SDS011;47650;49.848;9.620;2023-12-20T10:58:18;4.30;;;1.63;;
61741;SDS011;47650;49.848;9.620;2023-12-20T11:00:45;5.95;;;1.33;;
61741;SDS011;47650;49.848;9.620;2023-12-20T11:03:15;7.55;;;1.77;;
61741;SDS011;47650;49.848;9.620;2023-12-20T11:06:00;7.75;;;2.10;;
61741;SDS011;47650;49.848;9.620;2023-12-20T11:09:14;4.53;;;1.40;;
61741;SDS011;47650;49.848;9.620;2023-12-20T11:14:16;4.07;;;1.85;;
61741;SDS011;47650;49.848;9.620;2023-12-20T11:16:47;7.38;;;1.85;;
61741;SDS011;47650;49.848;9.620;2023-12-20T11:19:12;7.20;;;2.00;;
61741;SDS011;47650;49.848;9.620;2023-12-20T11:21:40;5.25;;;1.92;;
61741;SDS011;47650;49.848;9.620;2023-12-20T11:24:06;5.13;;;1.55;;
61741;SDS011;47650;49.848;9.620;2023-12-20T11:26:31;6.38;;;1.92;;
61741;SDS011;47650;49.848;9.620;2023-12-20T11:32:03;7.90;;;1.77;;
61741;SDS011;47650;49.848;9.620;2023-12-20T11:34:32;6.43;;;1.95;;
61741;SDS011;47650;49.848;9.620;2023-12-20T11:37:01;6.53;;;1.83;;
61741;SDS011;47650;49.848;9.620;2023-12-20T11:39:27;3.95;;;1.90;;
61741;SDS011;47650;49.848;9.620;2023-12-20T11:41:56;9.18;;;2.10;;
61741;SDS011;47650;49.848;9.620;2023-12-20T11:44:22;5.55;;;1.73;;
61741;SDS011;47650;49.848;9.620;2023-12-20T11:46:47;3.50;;;1.70;;
61741;SDS011;47650;49.848;9.620;2023-12-20T11:49:13;7.43;;;2.33;;
61741;SDS011;47650;49.848;9.620;2023-12-20T11:51:41;8.15;;;2.10;;
61741;SDS011;47650;49.848;9.620;2023-12-20T11:54:07;10.95;;;2.38;;
61741;SDS011;47650;49.848;9.620;2023-12-20T11:56:34;11.63;;;2.65;;
61741;SDS011;47650;49.848;9.620;2023-12-20T11:59:00;7.18;;;2.40;;
61741;SDS011;47650;49.848;9.620;2023-12-20T12:01:27;6.90;;;1.83;;
61741;SDS011;47650;49.848;9.620;2023-12-20T12:04:02;7.05;;;1.67;;
61741;SDS011;47650;49.848;9.620;2023-12-20T12:06:31;6.53;;;2.10;;
61741;SDS011;47650;49.848;9.620;2023-12-20T12:08:57;7.95;;;2.10;;
61741;SDS011;47650;49.848;9.620;2023-12-20T12:11:22;3.67;;;1.90;;
61741;SDS011;47650;49.848;9.620;2023-12-20T12:13:49;3.65;;;1.40;;
61741;SDS011;47650;49.848;9.620;2023-12-20T12:16:17;4.80;;;1.83;;
61741;SDS011;47650;49.848;9.620;2023-12-20T12:18:44;5.88;;;2.10;;
61741;SDS011;47650;49.848;9.620;2023-12-20T12:21:09;5.30;;;1.98;;
61741;SDS011;47650;49.848;9.620;2023-12-20T12:23:35;5.10;;;2.08;;
61741;SDS011;47650;49.848;9.620;2023-12-20T12:26:03;6.70;;;2.03;;
61741;SDS011;47650;49.848;9.620;2023-12-20T12:28:29;6.03;;;1.67;;
61741;SDS011;47650;49.848;9.620;2023-12-20T12:30:59;4.65;;;1.65;;
61741;SDS011;47650;49.848;9.620;2023-12-20T12:33:25;6.50;;;1.60;;
61741;SDS011;47650;49.848;9.620;2023-12-20T12:35:51;6.53;;;1.73;;
61741;SDS011;47650;49.848;9.620;2023-12-20T12:38:19;4.50;;;1.77;;
61741;SDS011;47650;49.848;9.620;2023-12-20T12:40:47;4.38;;;1.50;;
61741;SDS011;47650;49.848;9.620;2023-12-20T12:43:13;10.52;;;1.85;;
61741;SDS011;47650;49.848;9.620;2023-12-20T12:45:38;5.50;;;1.65;;
61741;SDS011;47650;49.848;9.620;2023-12-20T12:48:06;4.30;;;1.95;;
61741;SDS011;47650;49.848;9.620;2023-12-20T12:50:32;5.88;;;2.03;;
61741;SDS011;47650;49.848;9.620;2023-12-20T12:52:57;6.93;;;2.30;;
61741;SDS011;47650;49.848;9.620;2023-12-20T12:55:22;4.32;;;1.58;;
61741;SDS011;47650;49.848;9.620;2023-12-20T12:57:48;10.25;;;2.08;;
61741;SDS011;47650;49.848;9.620;2023-12-20T13:00:13;8.23;;;1.80;;
61741;SDS011;47650;49.848;9.620;2023-12-20T13:02:39;6.55;;;2.17;;
61741;SDS011;47650;49.848;9.620;2023-12-20T13:05:07;7.93;;;2.67;;
61741;SDS011;47650;49.848;9.620;2023-12-20T13:07:34;6.50;;;1.75;;
61741;SDS011;47650;49.848;9.620;2023-12-20T13:10:00;6.93;;;1.65;;
61741;SDS011;47650;49.848;9.620;2023-12-20T13:12:25;5.65;;;2.22;;
61741;SDS011;47650;49.848;9.620;2023-12-20T13:14:51;5.30;;;1.50;;
61741;SDS011;47650;49.848;9.620;2023-12-20T13:17:16;5.15;;;1.85;;
61741;SDS011;47650;49.848;9.620;2023-12-20T13:19:42;12.18;;;3.10;;
61741;SDS011;47650;49.848;9.620;2023-12-20T13:22:07;4.70;;;1.80;;
61741;SDS011;47650;49.848;9.620;2023-12-20T13:24:32;6.78;;;2.45;;
61741;SDS011;47650;49.848;9.620;2023-12-20T13:26:58;8.52;;;1.85;;
61741;SDS011;47650;49.848;9.620;2023-12-20T13:29:23;6.55;;;2.45;;
61741;SDS011;47650;49.848;9.620;2023-12-20T13:31:49;6.20;;;1.60;;
61741;SDS011;47650;49.848;9.620;2023-12-20T13:34:14;6.72;;;1.60;;
61741;SDS011;47650;49.848;9.620;2023-12-20T13:36:42;5.40;;;1.45;;
61741;SDS011;47650;49.848;9.620;2023-12-20T13:39:10;8.40;;;2.78;;
61741;SDS011;47650;49.848;9.620;2023-12-20T13:41:36;6.93;;;2.13;;
61741;SDS011;47650;49.848;9.620;2023-12-20T13:44:01;9.15;;;2.03;;
61741;SDS011;47650;49.848;9.620;2023-12-20T13:46:28;5.22;;;2.20;;
61741;SDS011;47650;49.848;9.620;2023-12-20T13:48:54;7.22;;;1.83;;
61741;SDS011;47650;49.848;9.620;2023-12-20T13:51:19;8.13;;;2.42;;
61741;SDS011;47650;49.848;9.620;2023-12-20T13:53:45;6.57;;;2.10;;
61741;SDS011;47650;49.848;9.620;2023-12-20T13:56:11;9.45;;;2.75;;
61741;SDS011;47650;49.848;9.620;2023-12-20T13:58:36;6.53;;;2.10;;
61741;SDS011;47650;49.848;9.620;2023-12-20T14:01:02;10.60;;;2.15;;
61741;SDS011;47650;49.848;9.620;2023-12-20T14:03:27;9.05;;;2.45;;
61741;SDS011;47650;49.848;9.620;2023-12-20T14:05:52;6.65;;;1.70;;
61741;SDS011;47650;49.848;9.620;2023-12-20T14:08:18;4.05;;;1.35;;
61741;SDS011;47650;49.848;9.620;2023-12-20T14:10:43;6.90;;;2.13;;
61741;SDS011;47650;49.848;9.620;2023-12-20T14:13:09;4.10;;;1.85;;
61741;SDS011;47650;49.848;9.620;2023-12-20T14:15:35;3.28;;;1.55;;
61741;SDS011;47650;49.848;9.620;2023-12-20T14:18:06;8.13;;;2.22;;
61741;SDS011;47650;49.848;9.620;2023-12-20T14:20:33;7.88;;;2.15;;
61741;SDS011;47650;49.848;9.620;2023-12-20T14:23:04;5.03;;;2.15;;
61741;SDS011;47650;49.848;9.620;2023-12-20T14:25:29;6.28;;;1.92;;
61741;SDS011;47650;49.848;9.620;2023-12-20T14:27:56;6.97;;;1.83;;
61741;SDS011;47650;49.848;9.620;2023-12-20T14:30:21;5.32;;;1.55;;
61741;SDS011;47650;49.848;9.620;2023-12-20T14:32:47;5.47;;;2.00;;
61741;SDS011;47650;49.848;9.620;2023-12-20T14:35:13;10.73;;;2.30;;
61741;SDS011;47650;49.848;9.620;2023-12-20T14:37:41;4.80;;;2.10;;
61741;SDS011;47650;49.848;9.620;2023-12-20T14:40:06;7.07;;;2.22;;
61741;SDS011;47650;49.848;9.620;2023-12-20T14:42:36;7.50;;;2.00;;
61741;SDS011;47650;49.848;9.620;2023-12-20T14:45:02;6.32;;;1.92;;